Time;durP1;ratioP1;P1;durP2;ratioP2;P2;SDS_P1;SDS_P2;PMS_P1;PMS_P2;Temp;Humidity;BMP_temperature;BMP_pressure;BME280_temperature;BME280_humidity;BME280_pressure;Samples;Min_cycle;Max_cycle;Signal;HPM_P1;HPM_P2
2021/11/24 00:02:16;;;;;;;0.70;0.70;;;;;;;;;;5052107;28;20237;-65
2021/11/24 00:04:42;;;;;;;0.60;0.60;;;;;;;;;;5052289;28;20461;-63
2021/11/24 00:07:08;;;;;;;0.60;0.60;;;;;;;;;;5052270;28;20172;-67
2021/11/24 00:09:34;;;;;;;0.60;0.60;;;;;;;;;;5052222;28;20172;-63
2021/11/24 00:12:03;;;;;;;0.60;0.60;;;;;;;;;;5052000;28;20527;-65
2021/11/24 00:14:29;;;;;;;0.70;0.70;;;;;;;;;;5051895;28;20422;-64
2021/11/24 00:16:55;;;;;;;0.60;0.60;;;;;;;;;;5051751;28;20635;-65
2021/11/24 00:19:21;;;;;;;0.70;0.70;;;;;;;;;;5051704;28;20898;-65
2021/11/24 00:21:47;;;;;;;0.60;0.60;;;;;;;;;;5051412;28;20398;-65
2021/11/24 00:24:13;;;;;;;0.50;0.50;;;;;;;;;;5051966;28;20422;-65
2021/11/24 00:26:39;;;;;;;0.60;0.60;;;;;;;;;;5051494;28;20490;-66
2021/11/24 00:29:05;;;;;;;0.57;0.57;;;;;;;;;;5051438;28;20924;-65
2021/11/24 00:31:31;;;;;;;0.52;0.52;;;;;;;;;;5051406;28;21020;-63
2021/11/24 00:33:57;;;;;;;0.57;0.57;;;;;;;;;;5051456;28;20821;-64
2021/11/24 00:36:23;;;;;;;0.60;0.60;;;;;;;;;;5051457;28;20172;-63
2021/11/24 00:38:49;;;;;;;0.68;0.68;;;;;;;;;;5051396;28;20180;-64
2021/11/24 00:41:15;;;;;;;0.70;0.70;;;;;;;;;;5051178;28;20751;-63
2021/11/24 00:43:41;;;;;;;0.60;0.60;;;;;;;;;;5049954;28;20203;-64
2021/11/24 00:46:07;;;;;;;0.70;0.70;;;;;;;;;;5051269;28;20466;-63
2021/11/24 00:48:33;;;;;;;0.70;0.70;;;;;;;;;;5057146;28;20398;-63
2021/11/24 00:50:59;;;;;;;0.70;0.70;;;;;;;;;;5057878;28;20410;-64
2021/11/24 00:53:25;;;;;;;0.60;0.60;;;;;;;;;;5057676;28;20257;-63
2021/11/24 00:55:51;;;;;;;0.60;0.60;;;;;;;;;;5057963;28;20317;-62
2021/11/24 00:58:18;;;;;;;0.70;0.70;;;;;;;;;;5057822;28;20222;-64
2021/11/24 01:00:44;;;;;;;0.60;0.60;;;;;;;;;;5057753;28;20171;-63
2021/11/24 01:03:10;;;;;;;0.50;0.50;;;;;;;;;;5058088;28;20641;-65
2021/11/24 01:05:36;;;;;;;0.60;0.60;;;;;;;;;;5058195;28;20218;-65
2021/11/24 01:08:02;;;;;;;0.60;0.60;;;;;;;;;;5058166;28;20774;-65
2021/11/24 01:10:28;;;;;;;0.70;0.70;;;;;;;;;;5057851;28;20592;-65
2021/11/24 01:12:54;;;;;;;0.70;0.70;;;;;;;;;;5056341;28;20195;-66
2021/11/24 01:15:20;;;;;;;0.68;0.68;;;;;;;;;;5057827;28;20539;-66
2021/11/24 01:17:46;;;;;;;0.60;0.60;;;;;;;;;;5057873;28;20175;-64
2021/11/24 01:20:13;;;;;;;0.60;0.60;;;;;;;;;;5057809;28;20176;-64
2021/11/24 01:22:39;;;;;;;0.60;0.60;;;;;;;;;;5057893;28;20235;-65
2021/11/24 01:25:05;;;;;;;0.60;0.60;;;;;;;;;;5057717;28;20202;-65
2021/11/24 01:27:31;;;;;;;0.60;0.60;;;;;;;;;;5057577;28;20172;-65
2021/11/24 01:29:57;;;;;;;0.60;0.60;;;;;;;;;;5057584;28;20195;-66
2021/11/24 01:32:23;;;;;;;0.60;0.60;;;;;;;;;;5057324;28;20538;-65
2021/11/24 01:34:49;;;;;;;0.50;0.50;;;;;;;;;;5057529;28;20474;-66
2021/11/24 01:37:15;;;;;;;0.60;0.60;;;;;;;;;;5057605;28;20179;-66
2021/11/24 01:39:41;;;;;;;0.70;0.70;;;;;;;;;;5057588;28;20456;-65
2021/11/24 01:42:07;;;;;;;0.55;0.55;;;;;;;;;;5055917;28;20970;-66
2021/11/24 01:44:33;;;;;;;0.63;0.63;;;;;;;;;;5057373;28;20306;-66
2021/11/24 01:47:01;;;;;;;0.52;0.52;;;;;;;;;;5057607;28;20253;-65
2021/11/24 01:49:28;;;;;;;0.60;0.60;;;;;;;;;;5057499;28;20172;-66
2021/11/24 01:51:56;;;;;;;0.55;0.55;;;;;;;;;;5057300;28;20171;-65
2021/11/24 01:54:22;;;;;;;0.60;0.60;;;;;;;;;;5056002;28;20203;-66
2021/11/24 01:56:48;;;;;;;0.60;0.60;;;;;;;;;;5057348;28;20665;-66
2021/11/24 01:59:14;;;;;;;0.60;0.60;;;;;;;;;;5054966;28;20168;-65
2021/11/24 02:01:42;;;;;;;0.50;0.50;;;;;;;;;;5054102;28;20172;-64
2021/11/24 02:04:08;;;;;;;0.65;0.65;;;;;;;;;;5054296;28;20423;-65
2021/11/24 02:06:34;;;;;;;0.70;0.70;;;;;;;;;;5054020;28;20211;-65
2021/11/24 02:08:59;;;;;;;0.70;0.70;;;;;;;;;;5054000;28;20218;-65
2021/11/24 02:11:26;;;;;;;0.63;0.63;;;;;;;;;;5052481;28;20417;-64
2021/11/24 02:13:52;;;;;;;0.50;0.50;;;;;;;;;;5053891;28;20229;-66
2021/11/24 02:16:18;;;;;;;0.53;0.53;;;;;;;;;;5053904;28;20179;-65
2021/11/24 02:18:44;;;;;;;0.60;0.60;;;;;;;;;;5054028;28;20505;-65
2021/11/24 02:21:11;;;;;;;0.70;0.70;;;;;;;;;;5054087;28;20422;-65
2021/11/24 02:23:36;;;;;;;0.50;0.50;;;;;;;;;;5053159;28;20937;-64
2021/11/24 02:26:02;;;;;;;0.60;0.60;;;;;;;;;;5053621;28;20217;-65
2021/11/24 02:28:28;;;;;;;0.60;0.60;;;;;;;;;;5053562;28;20885;-64
2021/11/24 02:30:55;;;;;;;0.60;0.60;;;;;;;;;;5052208;28;20653;-64
2021/11/24 02:33:21;;;;;;;0.70;0.70;;;;;;;;;;5053500;28;20207;-65
2021/11/24 02:35:47;;;;;;;0.60;0.60;;;;;;;;;;5053575;28;20176;-65
2021/11/24 02:38:16;;;;;;;0.60;0.60;;;;;;;;;;5053361;28;20445;-64
2021/11/24 02:40:42;;;;;;;0.50;0.50;;;;;;;;;;5052545;28;20183;-64
2021/11/24 02:43:09;;;;;;;0.68;0.68;;;;;;;;;;5053442;28;20202;-64
2021/11/24 02:45:36;;;;;;;0.60;0.60;;;;;;;;;;5053220;28;20207;-64
2021/11/24 02:48:02;;;;;;;0.60;0.60;;;;;;;;;;5053415;28;20250;-65
2021/11/24 02:50:28;;;;;;;0.80;0.80;;;;;;;;;;5053099;28;20652;-65
2021/11/24 02:52:54;;;;;;;0.60;0.60;;;;;;;;;;5076162;22;20972;-65
2021/11/24 02:55:20;;;;;;;0.60;0.60;;;;;;;;;;5054702;28;20439;-66
2021/11/24 02:57:48;;;;;;;0.60;0.60;;;;;;;;;;5073189;28;20174;-66
2021/11/24 03:00:14;;;;;;;0.60;0.60;;;;;;;;;;5072860;28;20186;-63
2021/11/24 03:02:40;;;;;;;0.70;0.70;;;;;;;;;;5072972;28;20171;-64
2021/11/24 03:05:06;;;;;;;0.60;0.60;;;;;;;;;;5072815;28;20198;-64
2021/11/24 03:07:32;;;;;;;0.60;0.60;;;;;;;;;;5072789;28;20413;-63
2021/11/24 03:09:59;;;;;;;0.50;0.50;;;;;;;;;;5072417;28;20175;-64
2021/11/24 03:12:25;;;;;;;0.65;0.65;;;;;;;;;;5072094;28;20451;-64
2021/11/24 03:14:51;;;;;;;0.60;0.60;;;;;;;;;;5072730;28;20199;-63
2021/11/24 03:17:17;;;;;;;0.50;0.50;;;;;;;;;;5072787;28;20776;-64
2021/11/24 03:19:47;;;;;;;0.60;0.60;;;;;;;;;;5072751;28;20909;-63
2021/11/24 03:22:13;;;;;;;0.57;0.57;;;;;;;;;;5072439;28;20420;-63
2021/11/24 03:24:39;;;;;;;0.60;0.60;;;;;;;;;;5054505;28;20205;-63
2021/11/24 03:27:05;;;;;;;0.70;0.70;;;;;;;;;;5072514;28;20527;-64
2021/11/24 03:29:31;;;;;;;0.70;0.70;;;;;;;;;;5072515;28;20474;-64
2021/11/24 03:31:57;;;;;;;0.60;0.60;;;;;;;;;;5072268;28;20641;-64
2021/11/24 03:34:23;;;;;;;0.53;0.53;;;;;;;;;;5072305;28;20955;-64
2021/11/24 03:36:49;;;;;;;0.60;0.60;;;;;;;;;;5072201;28;20413;-64
2021/11/24 03:39:15;;;;;;;0.60;0.60;;;;;;;;;;5072294;28;20405;-64
2021/11/24 03:41:41;;;;;;;0.60;0.60;;;;;;;;;;5072036;28;20414;-64
2021/11/24 03:44:07;;;;;;;0.50;0.50;;;;;;;;;;5072120;28;20510;-64
2021/11/24 03:46:33;;;;;;;0.60;0.60;;;;;;;;;;5054204;28;20483;-63
2021/11/24 03:48:59;;;;;;;0.60;0.60;;;;;;;;;;5072065;28;20419;-63
2021/11/24 03:51:25;;;;;;;0.57;0.57;;;;;;;;;;5071807;28;20621;-63
2021/11/24 03:53:51;;;;;;;0.70;0.70;;;;;;;;;;5071822;28;20452;-63
2021/11/24 03:56:17;;;;;;;0.70;0.70;;;;;;;;;;5072086;28;20417;-64
2021/11/24 03:58:43;;;;;;;0.60;0.60;;;;;;;;;;5071960;28;20220;-63
2021/11/24 04:01:10;;;;;;;0.70;0.70;;;;;;;;;;5071723;28;20461;-64
2021/11/24 04:03:36;;;;;;;0.70;0.70;;;;;;;;;;5071837;28;20566;-63
2021/11/24 04:06:02;;;;;;;0.60;0.60;;;;;;;;;;5071721;28;20190;-64
2021/11/24 04:08:28;;;;;;;0.60;0.60;;;;;;;;;;5071855;28;20211;-63
2021/11/24 04:10:54;;;;;;;0.60;0.60;;;;;;;;;;5071524;28;20174;-63
2021/11/24 04:13:20;;;;;;;0.60;0.60;;;;;;;;;;5071802;28;20435;-63
2021/11/24 04:15:46;;;;;;;0.60;0.60;;;;;;;;;;5071691;28;20181;-64
2021/11/24 04:18:12;;;;;;;0.60;0.60;;;;;;;;;;5071606;28;20409;-64
2021/11/24 04:20:38;;;;;;;0.65;0.65;;;;;;;;;;5071486;28;20573;-64
2021/11/24 04:23:04;;;;;;;0.60;0.60;;;;;;;;;;5071230;28;20202;-64
2021/11/24 04:25:30;;;;;;;0.60;0.60;;;;;;;;;;5071555;28;20206;-64
2021/11/24 04:27:56;;;;;;;0.60;0.60;;;;;;;;;;5071677;28;20413;-63
2021/11/24 04:30:22;;;;;;;0.60;0.60;;;;;;;;;;5071493;28;20224;-63
2021/11/24 04:32:50;;;;;;;0.60;0.60;;;;;;;;;;5071511;28;20185;-66
2021/11/24 04:35:16;;;;;;;0.70;0.70;;;;;;;;;;5071508;28;20167;-66
2021/11/24 04:37:42;;;;;;;0.50;0.50;;;;;;;;;;5071548;28;20185;-65
2021/11/24 04:40:09;;;;;;;0.70;0.70;;;;;;;;;;5053207;28;20512;-63
2021/11/24 04:42:36;;;;;;;0.80;0.80;;;;;;;;;;5071383;28;20749;-64
2021/11/24 04:45:03;;;;;;;0.70;0.70;;;;;;;;;;5071237;28;20218;-63
2021/11/24 04:47:28;;;;;;;0.60;0.60;;;;;;;;;;5071394;28;20174;-64
2021/11/24 04:49:54;;;;;;;0.60;0.60;;;;;;;;;;5071337;28;20216;-63
2021/11/24 04:52:20;;;;;;;0.60;0.60;;;;;;;;;;5053262;28;20425;-64
2021/11/24 04:54:46;;;;;;;0.60;0.60;;;;;;;;;;5053173;28;20442;-64
2021/11/24 04:57:12;;;;;;;0.60;0.60;;;;;;;;;;5071350;28;20194;-64
2021/11/24 04:59:39;;;;;;;0.60;0.60;;;;;;;;;;5071313;28;20405;-64
2021/11/24 05:02:05;;;;;;;0.80;0.80;;;;;;;;;;5070886;28;20405;-64
2021/11/24 05:04:31;;;;;;;0.60;0.60;;;;;;;;;;5071087;28;20197;-64
2021/11/24 05:06:57;;;;;;;0.70;0.70;;;;;;;;;;5071277;28;20449;-64
2021/11/24 05:09:23;;;;;;;0.60;0.60;;;;;;;;;;5071155;28;20189;-64
2021/11/24 05:11:49;;;;;;;0.70;0.70;;;;;;;;;;5070899;28;20413;-64
2021/11/24 05:14:19;;;;;;;0.60;0.60;;;;;;;;;;5071022;28;20429;-64
2021/11/24 05:16:48;;;;;;;0.70;0.70;;;;;;;;;;5071114;28;20174;-64
2021/11/24 05:19:18;;;;;;;0.70;0.70;;;;;;;;;;5071044;28;20192;-64
2021/11/24 05:21:48;;;;;;;0.70;0.70;;;;;;;;;;5070888;28;20175;-64
2021/11/24 05:24:14;;;;;;;0.70;0.70;;;;;;;;;;5071062;28;20583;-64
2021/11/24 05:26:40;;;;;;;0.60;0.60;;;;;;;;;;5066354;28;20209;-64
2021/11/24 05:29:06;;;;;;;0.60;0.60;;;;;;;;;;5056125;28;20180;-64
2021/11/24 05:31:32;;;;;;;0.70;0.70;;;;;;;;;;5043204;28;20413;-64
2021/11/24 05:33:58;;;;;;;0.60;0.60;;;;;;;;;;5051457;28;20801;-64
2021/11/24 05:36:24;;;;;;;0.60;0.60;;;;;;;;;;5054837;28;20414;-64
2021/11/24 05:38:50;;;;;;;0.60;0.60;;;;;;;;;;5054845;28;20643;-64
2021/11/24 05:41:16;;;;;;;0.70;0.70;;;;;;;;;;5054605;28;20425;-64
2021/11/24 05:43:42;;;;;;;0.60;0.60;;;;;;;;;;5054484;28;20206;-64
2021/11/24 05:46:16;;;;;;;0.60;0.60;;;;;;;;;;5040810;28;20217;-64
2021/11/24 05:48:43;;;;;;;0.60;0.60;;;;;;;;;;5054629;28;20643;-64
2021/11/24 05:51:09;;;;;;;0.60;0.60;;;;;;;;;;5070496;28;20178;-65
2021/11/24 05:53:36;;;;;;;0.60;0.60;;;;;;;;;;5054336;28;20748;-64
2021/11/24 05:56:02;;;;;;;0.50;0.50;;;;;;;;;;5067190;28;20183;-64
2021/11/24 05:58:28;;;;;;;0.60;0.60;;;;;;;;;;5061521;28;20212;-64
2021/11/24 06:00:54;;;;;;;0.70;0.70;;;;;;;;;;5072477;28;20225;-64
2021/11/24 06:03:20;;;;;;;0.70;0.70;;;;;;;;;;5069745;28;20580;-65
2021/11/24 06:05:46;;;;;;;0.60;0.60;;;;;;;;;;5074138;28;20205;-64
2021/11/24 06:08:12;;;;;;;0.60;0.60;;;;;;;;;;5074479;28;20194;-64
2021/11/24 06:10:38;;;;;;;0.60;0.60;;;;;;;;;;5056270;28;20167;-65
2021/11/24 06:13:05;;;;;;;0.70;0.70;;;;;;;;;;5073993;28;20486;-64
2021/11/24 06:15:31;;;;;;;0.70;0.70;;;;;;;;;;5073820;28;20650;-65
2021/11/24 06:17:57;;;;;;;0.70;0.70;;;;;;;;;;5073921;28;20174;-65
2021/11/24 06:20:23;;;;;;;0.60;0.60;;;;;;;;;;5073681;28;20401;-65
2021/11/24 06:22:50;;;;;;;0.60;0.60;;;;;;;;;;5073794;28;20182;-64
2021/11/24 06:25:16;;;;;;;0.60;0.60;;;;;;;;;;5073813;28;20197;-65
2021/11/24 06:27:42;;;;;;;0.60;0.60;;;;;;;;;;5073769;28;20653;-65
2021/11/24 06:30:10;;;;;;;0.60;0.60;;;;;;;;;;5073719;28;20199;-64
2021/11/24 06:32:36;;;;;;;0.60;0.60;;;;;;;;;;5073638;28;20541;-65
2021/11/24 06:35:02;;;;;;;0.63;0.63;;;;;;;;;;5073632;28;20199;-64
2021/11/24 06:37:28;;;;;;;0.60;0.60;;;;;;;;;;5073646;28;20178;-64
2021/11/24 06:39:54;;;;;;;0.50;0.50;;;;;;;;;;5073605;28;20584;-65
2021/11/24 06:42:20;;;;;;;0.60;0.60;;;;;;;;;;5073340;28;20413;-65
2021/11/24 06:44:45;;;;;;;0.70;0.70;;;;;;;;;;5072724;28;20494;-64
2021/11/24 06:47:13;;;;;;;0.60;0.60;;;;;;;;;;5073181;28;20501;-65
2021/11/24 06:49:40;;;;;;;0.60;0.60;;;;;;;;;;5073409;28;20404;-65
2021/11/24 06:52:06;;;;;;;0.60;0.60;;;;;;;;;;5073150;28;20534;-64
2021/11/24 06:54:32;;;;;;;0.60;0.60;;;;;;;;;;5072962;28;20614;-64
2021/11/24 06:56:58;;;;;;;0.60;0.60;;;;;;;;;;5073432;28;20174;-65
2021/11/24 06:59:24;;;;;;;0.60;0.60;;;;;;;;;;5073279;28;20220;-64
2021/11/24 07:01:49;;;;;;;0.60;0.60;;;;;;;;;;5072865;28;20946;-64
2021/11/24 07:04:15;;;;;;;0.80;0.80;;;;;;;;;;5067047;28;20442;-64
2021/11/24 07:06:41;;;;;;;0.70;0.70;;;;;;;;;;5052993;28;20466;-64
2021/11/24 07:09:10;;;;;;;0.60;0.60;;;;;;;;;;5065774;28;20257;-64
2021/11/24 07:11:36;;;;;;;0.70;0.70;;;;;;;;;;5052793;28;20405;-65
2021/11/24 07:14:02;;;;;;;0.68;0.68;;;;;;;;;;5053409;28;20199;-64
2021/11/24 07:16:28;;;;;;;0.70;0.70;;;;;;;;;;5053052;28;20248;-65
2021/11/24 07:18:54;;;;;;;0.60;0.60;;;;;;;;;;5050501;28;20444;-64
2021/11/24 07:21:20;;;;;;;0.70;0.70;;;;;;;;;;5063693;28;20435;-65
2021/11/24 07:23:46;;;;;;;0.60;0.60;;;;;;;;;;5064346;28;20433;-65
2021/11/24 07:26:12;;;;;;;0.60;0.60;;;;;;;;;;5072607;28;20191;-64
2021/11/24 07:28:38;;;;;;;0.70;0.70;;;;;;;;;;5067293;28;20411;-65
2021/11/24 07:31:04;;;;;;;0.77;0.77;;;;;;;;;;5051889;28;20195;-64
2021/11/24 07:33:30;;;;;;;0.80;0.80;;;;;;;;;;5052701;28;20444;-64
2021/11/24 07:35:56;;;;;;;0.50;0.50;;;;;;;;;;5066388;28;20464;-65
2021/11/24 07:38:22;;;;;;;0.60;0.60;;;;;;;;;;5054396;28;20429;-64
2021/11/24 07:40:48;;;;;;;0.60;0.60;;;;;;;;;;5050514;28;20483;-65
2021/11/24 07:43:14;;;;;;;0.60;0.60;;;;;;;;;;5051333;28;20465;-65
2021/11/24 07:45:40;;;;;;;0.60;0.60;;;;;;;;;;5051157;28;20491;-64
2021/11/24 07:48:06;;;;;;;0.50;0.50;;;;;;;;;;5052370;28;20484;-65
2021/11/24 07:50:32;;;;;;;0.60;0.60;;;;;;;;;;5052231;28;20548;-64
2021/11/24 07:52:58;;;;;;;0.60;0.60;;;;;;;;;;5051447;28;20247;-65
2021/11/24 07:55:24;;;;;;;0.60;0.60;;;;;;;;;;5070623;28;20273;-64
2021/11/24 07:57:50;;;;;;;0.60;0.60;;;;;;;;;;5071329;28;20401;-65
2021/11/24 08:00:16;;;;;;;0.50;0.50;;;;;;;;;;5071785;28;20474;-65
2021/11/24 08:02:42;;;;;;;0.63;0.63;;;;;;;;;;5071882;28;20171;-65
2021/11/24 08:05:08;;;;;;;0.60;0.60;;;;;;;;;;5071132;28;20703;-65
2021/11/24 08:07:36;;;;;;;0.50;0.50;;;;;;;;;;5053943;28;20710;-65
2021/11/24 08:10:04;;;;;;;0.60;0.60;;;;;;;;;;5071780;28;20221;-64
2021/11/24 08:12:30;;;;;;;0.50;0.50;;;;;;;;;;5071680;28;20174;-64
2021/11/24 08:14:56;;;;;;;0.50;0.50;;;;;;;;;;5071611;28;20195;-65
2021/11/24 08:17:22;;;;;;;0.50;0.50;;;;;;;;;;5071867;28;20519;-65
2021/11/24 08:19:49;;;;;;;0.67;0.67;;;;;;;;;;5071825;28;20405;-65
2021/11/24 08:22:15;;;;;;;0.60;0.60;;;;;;;;;;5071539;28;20935;-64
2021/11/24 08:24:41;;;;;;;0.70;0.70;;;;;;;;;;5071478;28;20198;-65
2021/11/24 08:27:07;;;;;;;0.60;0.60;;;;;;;;;;5071566;28;20172;-65
2021/11/24 08:29:33;;;;;;;0.60;0.60;;;;;;;;;;5071534;28;20252;-65
2021/11/24 08:31:59;;;;;;;0.60;0.60;;;;;;;;;;5071239;28;20175;-65
2021/11/24 08:34:25;;;;;;;0.70;0.70;;;;;;;;;;5053441;28;20441;-64
2021/11/24 08:36:52;;;;;;;0.50;0.50;;;;;;;;;;5071449;28;20414;-65
2021/11/24 08:39:18;;;;;;;0.65;0.65;;;;;;;;;;5071459;28;20944;-65
2021/11/24 08:41:44;;;;;;;0.60;0.60;;;;;;;;;;5071572;28;20179;-65
2021/11/24 08:44:10;;;;;;;0.60;0.60;;;;;;;;;;5071266;28;20194;-65
2021/11/24 08:46:36;;;;;;;0.60;0.60;;;;;;;;;;5071312;28;20241;-65
2021/11/24 08:49:02;;;;;;;0.50;0.50;;;;;;;;;;5071452;28;20175;-65
2021/11/24 08:51:28;;;;;;;0.50;0.50;;;;;;;;;;5071215;28;20497;-65
2021/11/24 08:53:55;;;;;;;0.50;0.50;;;;;;;;;;5072220;28;20254;-65
2021/11/24 08:56:20;;;;;;;0.50;0.50;;;;;;;;;;5071191;28;20468;-65
2021/11/24 08:58:47;;;;;;;0.50;0.50;;;;;;;;;;5069281;28;20183;-65
2021/11/24 09:01:13;;;;;;;0.60;0.60;;;;;;;;;;5053181;28;20504;-65
2021/11/24 09:03:39;;;;;;;0.70;0.70;;;;;;;;;;5070901;28;20191;-65
2021/11/24 09:06:06;;;;;;;0.57;0.57;;;;;;;;;;5071066;28;20199;-65
2021/11/24 09:08:32;;;;;;;0.60;0.60;;;;;;;;;;5072874;28;20424;-65
2021/11/24 09:10:58;;;;;;;0.60;0.60;;;;;;;;;;5074956;28;20175;-65
2021/11/24 09:13:24;;;;;;;0.57;0.57;;;;;;;;;;5074941;28;20937;-65
2021/11/24 09:15:50;;;;;;;0.70;0.70;;;;;;;;;;5075132;28;20171;-65
2021/11/24 09:18:16;;;;;;;0.50;0.50;;;;;;;;;;5074810;28;20409;-65
2021/11/24 09:20:43;;;;;;;0.57;0.57;;;;;;;;;;5074814;28;20840;-65
2021/11/24 09:23:09;;;;;;;0.50;0.50;;;;;;;;;;5074858;28;20605;-65
2021/11/24 09:25:37;;;;;;;0.52;0.52;;;;;;;;;;5074085;28;20207;-65
2021/11/24 09:28:11;;;;;;;0.60;0.60;;;;;;;;;;5074805;28;20213;-65
2021/11/24 09:30:38;;;;;;;0.50;0.50;;;;;;;;;;5074706;28;20170;-65
2021/11/24 09:33:04;;;;;;;0.60;0.60;;;;;;;;;;5056861;28;20620;-65
2021/11/24 09:35:31;;;;;;;0.50;0.50;;;;;;;;;;5074968;28;20203;-65
2021/11/24 09:37:57;;;;;;;0.60;0.60;;;;;;;;;;5074715;28;20551;-65
2021/11/24 09:40:23;;;;;;;0.60;0.60;;;;;;;;;;5074608;28;20691;-65
2021/11/24 09:42:52;;;;;;;0.60;0.60;;;;;;;;;;5074553;28;20167;-65
2021/11/24 09:45:18;;;;;;;0.50;0.50;;;;;;;;;;5074654;28;20198;-65
2021/11/24 09:47:46;;;;;;;0.50;0.50;;;;;;;;;;5074589;28;20191;-65
2021/11/24 09:50:12;;;;;;;0.50;0.50;;;;;;;;;;5056848;28;20914;-65
2021/11/24 09:52:38;;;;;;;0.50;0.50;;;;;;;;;;5074655;28;20173;-65
2021/11/24 09:55:05;;;;;;;0.50;0.50;;;;;;;;;;5074205;28;20269;-65
2021/11/24 09:57:31;;;;;;;0.50;0.50;;;;;;;;;;5074296;28;20186;-65
2021/11/24 09:59:58;;;;;;;0.60;0.60;;;;;;;;;;5074164;28;20177;-65
2021/11/24 10:02:24;;;;;;;0.50;0.50;;;;;;;;;;5074030;28;20195;-65
2021/11/24 10:04:50;;;;;;;0.60;0.60;;;;;;;;;;5073959;28;20572;-65
2021/11/24 10:07:18;;;;;;;0.50;0.50;;;;;;;;;;5074200;28;20255;-65
2021/11/24 10:09:44;;;;;;;0.60;0.60;;;;;;;;;;5074143;28;20215;-65
2021/11/24 10:12:11;;;;;;;0.50;0.50;;;;;;;;;;5073866;28;20258;-65
2021/11/24 10:14:37;;;;;;;0.50;0.50;;;;;;;;;;5073936;28;20188;-65
2021/11/24 10:17:07;;;;;;;0.50;0.50;;;;;;;;;;5073983;28;20181;-65
2021/11/24 10:19:34;;;;;;;0.50;0.50;;;;;;;;;;5073122;28;20179;-65
2021/11/24 10:22:01;;;;;;;0.50;0.50;;;;;;;;;;5073519;28;20639;-65
2021/11/24 10:24:33;;;;;;;0.50;0.50;;;;;;;;;;5073746;28;20200;-65
2021/11/24 10:27:01;;;;;;;0.50;0.50;;;;;;;;;;5073532;28;20207;-65
2021/11/24 10:29:27;;;;;;;0.40;0.40;;;;;;;;;;5055794;28;20188;-65
2021/11/24 10:31:54;;;;;;;0.60;0.60;;;;;;;;;;5055458;28;20267;-65
2021/11/24 10:34:24;;;;;;;0.57;0.57;;;;;;;;;;5073462;28;21011;-65
2021/11/24 10:36:52;;;;;;;0.50;0.50;;;;;;;;;;5073557;28;20173;-65
2021/11/24 10:39:19;;;;;;;0.60;0.60;;;;;;;;;;5073529;28;20201;-65
2021/11/24 10:41:45;;;;;;;0.50;0.50;;;;;;;;;;5073243;28;20642;-65
2021/11/24 10:44:23;;;;;;;0.60;0.60;;;;;;;;;;5055285;28;20683;-65
2021/11/24 10:46:52;;;;;;;0.60;0.60;;;;;;;;;;5073284;28;20577;-65
2021/11/24 10:49:18;;;;;;;0.50;0.50;;;;;;;;;;5073378;28;20177;-65
2021/11/24 10:51:44;;;;;;;0.50;0.50;;;;;;;;;;5073106;28;20171;-65
2021/11/24 10:54:17;;;;;;;0.70;0.70;;;;;;;;;;5073304;28;20209;-65
2021/11/24 10:57:00;;;;;;;0.50;0.50;;;;;;;;;;5073279;28;20416;-65
2021/11/24 10:59:26;;;;;;;0.50;0.50;;;;;;;;;;5055185;28;20178;-65
2021/11/24 11:01:52;;;;;;;0.50;0.50;;;;;;;;;;5073026;28;20231;-65
2021/11/24 11:04:18;;;;;;;0.60;0.60;;;;;;;;;;5073231;28;20202;-65
2021/11/24 11:06:44;;;;;;;0.50;0.50;;;;;;;;;;5072933;28;20206;-65
2021/11/24 11:09:10;;;;;;;0.50;0.50;;;;;;;;;;5073014;28;20217;-65
2021/11/24 11:11:38;;;;;;;0.40;0.40;;;;;;;;;;5072438;28;20175;-66
2021/11/24 11:14:14;;;;;;;0.40;0.40;;;;;;;;;;5072807;28;20421;-66
2021/11/24 11:16:42;;;;;;;0.40;0.40;;;;;;;;;;5072887;28;20535;-66
2021/11/24 11:19:07;;;;;;;0.50;0.50;;;;;;;;;;5072829;28;20182;-66
2021/11/24 11:21:35;;;;;;;0.40;0.40;;;;;;;;;;5072537;28;20658;-66
2021/11/24 11:24:06;;;;;;;0.40;0.40;;;;;;;;;;5072556;28;20422;-66
2021/11/24 11:26:32;;;;;;;0.40;0.40;;;;;;;;;;5072567;28;20257;-66
2021/11/24 11:28:58;;;;;;;0.40;0.40;;;;;;;;;;5072652;28;20163;-66
2021/11/24 11:31:27;;;;;;;0.40;0.40;;;;;;;;;;5071402;28;20474;-66
2021/11/24 11:33:56;;;;;;;0.40;0.40;;;;;;;;;;5072262;28;20413;-66
2021/11/24 11:36:22;;;;;;;0.30;0.30;;;;;;;;;;5072374;28;20452;-66
2021/11/24 11:38:50;;;;;;;0.40;0.40;;;;;;;;;;5072298;28;20175;-66
2021/11/24 11:41:17;;;;;;;0.40;0.40;;;;;;;;;;5072057;28;20225;-66
2021/11/24 11:43:44;;;;;;;0.40;0.40;;;;;;;;;;5072244;28;20285;-66
2021/11/24 11:46:20;;;;;;;0.30;0.30;;;;;;;;;;5072435;28;20869;-66
2021/11/24 11:48:47;;;;;;;0.40;0.40;;;;;;;;;;5072384;28;20171;-66
2021/11/24 11:51:14;;;;;;;0.30;0.30;;;;;;;;;;5071999;28;20773;-66
2021/11/24 11:53:50;;;;;;;0.40;0.40;;;;;;;;;;5071908;28;20605;-66
2021/11/24 11:56:18;;;;;;;0.30;0.30;;;;;;;;;;5071991;28;20436;-66
2021/11/24 11:58:52;;;;;;;0.40;0.40;;;;;;;;;;5071809;28;20262;-66
2021/11/24 12:01:20;;;;;;;0.40;0.40;;;;;;;;;;5053628;28;20496;-66
2021/11/24 12:04:04;;;;;;;0.40;0.40;;;;;;;;;;5071682;28;20520;-65
2021/11/24 12:06:48;;;;;;;0.40;0.40;;;;;;;;;;5053183;28;20203;-66
2021/11/24 12:09:34;;;;;;;0.40;0.40;;;;;;;;;;5071762;28;20177;-66
2021/11/24 12:14:44;;;;;;;0.40;0.40;;;;;;;;;;5071990;28;20693;-66
2021/11/24 12:17:32;;;;;;;0.40;0.40;;;;;;;;;;5071505;28;20800;-66
2021/11/24 12:20:10;;;;;;;0.40;0.40;;;;;;;;;;5053545;28;20179;-66
2021/11/24 12:25:24;;;;;;;0.40;0.40;;;;;;;;;;5071451;28;20213;-66
2021/11/24 12:27:53;;;;;;;0.40;0.40;;;;;;;;;;5071012;28;20756;-65
2021/11/24 12:30:47;;;;;;;0.40;0.40;;;;;;;;;;5053327;28;20258;-65
2021/11/24 12:33:22;;;;;;;0.40;0.40;;;;;;;;;;5071461;28;20191;-65
2021/11/24 12:35:48;;;;;;;0.40;0.40;;;;;;;;;;5071404;28;20257;-65
2021/11/24 12:38:15;;;;;;;0.40;0.40;;;;;;;;;;5071263;28;20213;-65
2021/11/24 12:40:43;;;;;;;0.40;0.40;;;;;;;;;;5071218;28;20432;-65
2021/11/24 12:43:16;;;;;;;0.40;0.40;;;;;;;;;;5071006;28;20697;-65
2021/11/24 12:45:59;;;;;;;0.40;0.40;;;;;;;;;;5053212;28;20222;-65
2021/11/24 12:48:34;;;;;;;0.50;0.50;;;;;;;;;;5071254;28;20345;-65
2021/11/24 12:51:00;;;;;;;0.40;0.40;;;;;;;;;;5071009;28;20175;-65
2021/11/24 12:53:26;;;;;;;0.45;0.45;;;;;;;;;;5070859;28;20205;-65
2021/11/24 12:56:04;;;;;;;0.50;0.50;;;;;;;;;;5071040;28;20182;-64
2021/11/24 12:58:30;;;;;;;0.40;0.40;;;;;;;;;;5071273;28;20177;-65
2021/11/24 13:00:56;;;;;;;0.50;0.50;;;;;;;;;;5070456;28;20172;-65
2021/11/24 13:03:29;;;;;;;0.50;0.50;;;;;;;;;;5071196;28;20844;-65
2021/11/24 13:05:56;;;;;;;0.50;0.50;;;;;;;;;;5070894;28;20987;-65
2021/11/24 13:08:22;;;;;;;0.40;0.40;;;;;;;;;;5070059;28;20206;-65
2021/11/24 13:10:59;;;;;;;0.50;0.50;;;;;;;;;;5070685;28;20176;-65
2021/11/24 13:13:25;;;;;;;0.50;0.50;;;;;;;;;;5053308;28;20270;-65
2021/11/24 13:15:51;;;;;;;0.50;0.50;;;;;;;;;;5070977;28;20183;-64
2021/11/24 13:18:21;;;;;;;0.50;0.50;;;;;;;;;;5070437;28;20414;-65
2021/11/24 13:20:47;;;;;;;0.50;0.50;;;;;;;;;;5070641;28;20440;-64
2021/11/24 13:23:14;;;;;;;0.40;0.40;;;;;;;;;;5052632;28;20202;-64
2021/11/24 13:25:41;;;;;;;0.50;0.50;;;;;;;;;;5070813;28;20205;-65
2021/11/24 13:28:10;;;;;;;0.40;0.40;;;;;;;;;;5070872;28;20173;-65
2021/11/24 13:30:40;;;;;;;0.40;0.40;;;;;;;;;;5070397;28;20175;-64
2021/11/24 13:33:11;;;;;;;0.40;0.40;;;;;;;;;;5070922;28;20195;-64
2021/11/24 13:35:39;;;;;;;0.40;0.40;;;;;;;;;;5070693;28;20178;-65
2021/11/24 13:38:05;;;;;;;0.40;0.40;;;;;;;;;;5070737;28;20641;-65
2021/11/24 13:40:32;;;;;;;0.50;0.50;;;;;;;;;;5070339;28;20185;-65
2021/11/24 13:42:58;;;;;;;0.50;0.50;;;;;;;;;;5070251;28;20504;-65
2021/11/24 13:45:34;;;;;;;0.50;0.50;;;;;;;;;;5070362;28;20215;-65
2021/11/24 13:48:07;;;;;;;0.50;0.50;;;;;;;;;;5070487;28;20435;-65
2021/11/24 13:50:33;;;;;;;0.50;0.50;;;;;;;;;;5070488;28;20584;-65
2021/11/24 13:53:18;;;;;;;0.40;0.40;;;;;;;;;;5070395;28;20175;-65
2021/11/24 13:55:44;;;;;;;0.40;0.40;;;;;;;;;;5072410;28;20414;-65
2021/11/24 13:58:10;;;;;;;0.50;0.50;;;;;;;;;;5074237;28;20185;-65
2021/11/24 14:00:36;;;;;;;0.50;0.50;;;;;;;;;;5073775;28;20477;-65
2021/11/24 14:03:02;;;;;;;0.50;0.50;;;;;;;;;;5074067;28;20515;-65
2021/11/24 14:05:33;;;;;;;0.50;0.50;;;;;;;;;;5074002;28;20467;-65
2021/11/24 14:07:59;;;;;;;0.50;0.50;;;;;;;;;;5074102;28;20174;-65
2021/11/24 14:10:28;;;;;;;0.47;0.47;;;;;;;;;;5073844;28;20644;-65
2021/11/24 14:12:57;;;;;;;0.50;0.50;;;;;;;;;;5073948;28;20826;-65
2021/11/24 14:15:27;;;;;;;0.50;0.50;;;;;;;;;;5073853;28;20169;-65
2021/11/24 14:17:53;;;;;;;0.50;0.50;;;;;;;;;;5073915;28;20174;-65
2021/11/24 14:20:22;;;;;;;0.50;0.50;;;;;;;;;;5055662;28;20312;-65
2021/11/24 14:22:53;;;;;;;0.50;0.50;;;;;;;;;;5073645;28;20502;-65
2021/11/24 14:25:20;;;;;;;0.40;0.40;;;;;;;;;;5073632;28;20199;-65
2021/11/24 14:27:47;;;;;;;0.40;0.40;;;;;;;;;;5055700;28;20543;-65
2021/11/24 14:30:14;;;;;;;0.40;0.40;;;;;;;;;;5073492;28;20644;-65
2021/11/24 14:32:40;;;;;;;0.50;0.50;;;;;;;;;;5073861;28;20181;-65
2021/11/24 14:35:08;;;;;;;0.50;0.50;;;;;;;;;;5073507;28;20192;-65
2021/11/24 14:37:34;;;;;;;0.40;0.40;;;;;;;;;;5073492;28;20168;-65
2021/11/24 14:40:00;;;;;;;0.50;0.50;;;;;;;;;;5073663;28;20197;-65
2021/11/24 14:42:26;;;;;;;0.50;0.50;;;;;;;;;;5073140;28;20789;-65
2021/11/24 14:44:52;;;;;;;0.50;0.50;;;;;;;;;;5073250;28;20193;-65
2021/11/24 14:47:21;;;;;;;0.52;0.52;;;;;;;;;;5073586;28;20650;-65
2021/11/24 14:49:47;;;;;;;0.50;0.50;;;;;;;;;;5073178;28;20206;-65